sensor_id;sensor_type;location;lat;lon;timestamp;temperature;humidity
43561;DHT22;32305;46.410;17.394;2023-09-30T00:01:02;23.50;54.10
43561;DHT22;32305;46.410;17.394;2023-09-30T00:03:29;23.50;54.10
43561;DHT22;32305;46.410;17.394;2023-09-30T00:05:57;23.50;54.10
43561;DHT22;32305;46.410;17.394;2023-09-30T00:08:23;23.50;54.20
43561;DHT22;32305;46.410;17.394;2023-09-30T00:10:51;23.50;54.20
43561;DHT22;32305;46.410;17.394;2023-09-30T00:13:21;23.50;54.20
43561;DHT22;32305;46.410;17.394;2023-09-30T00:15:49;23.50;54.20
43561;DHT22;32305;46.410;17.394;2023-09-30T00:18:15;23.50;54.20
43561;DHT22;32305;46.410;17.394;2023-09-30T00:20:42;23.40;54.20
43561;DHT22;32305;46.410;17.394;2023-09-30T00:23:09;23.40;54.20
43561;DHT22;32305;46.410;17.394;2023-09-30T00:25:36;23.40;54.20
43561;DHT22;32305;46.410;17.394;2023-09-30T00:28:04;23.50;54.30
43561;DHT22;32305;46.410;17.394;2023-09-30T00:30:31;23.40;54.20
43561;DHT22;32305;46.410;17.394;2023-09-30T00:32:59;23.40;54.20
43561;DHT22;32305;46.410;17.394;2023-09-30T00:35:26;23.40;54.20
43561;DHT22;32305;46.410;17.394;2023-09-30T00:37:53;23.40;54.20
43561;DHT22;32305;46.410;17.394;2023-09-30T00:40:20;23.40;54.30
43561;DHT22;32305;46.410;17.394;2023-09-30T00:42:47;23.40;54.20
43561;DHT22;32305;46.410;17.394;2023-09-30T00:45:14;23.40;54.20
43561;DHT22;32305;46.410;17.394;2023-09-30T00:47:41;23.40;54.80
43561;DHT22;32305;46.410;17.394;2023-09-30T00:50:08;23.40;54.30
43561;DHT22;32305;46.410;17.394;2023-09-30T00:52:38;23.40;54.20
43561;DHT22;32305;46.410;17.394;2023-09-30T00:55:05;23.40;54.30
43561;DHT22;32305;46.410;17.394;2023-09-30T00:57:33;23.40;54.20
43561;DHT22;32305;46.410;17.394;2023-09-30T01:00:01;23.40;54.30
43561;DHT22;32305;46.410;17.394;2023-09-30T01:02:28;23.40;54.20
43561;DHT22;32305;46.410;17.394;2023-09-30T01:04:56;23.40;54.30
43561;DHT22;32305;46.410;17.394;2023-09-30T01:07:23;23.40;54.30
43561;DHT22;32305;46.410;17.394;2023-09-30T01:09:50;23.40;54.20
43561;DHT22;32305;46.410;17.394;2023-09-30T01:12:17;23.40;54.20
43561;DHT22;32305;46.410;17.394;2023-09-30T01:14:44;23.40;54.20
43561;DHT22;32305;46.410;17.394;2023-09-30T01:17:12;23.40;54.20
43561;DHT22;32305;46.410;17.394;2023-09-30T01:19:40;23.40;54.10
43561;DHT22;32305;46.410;17.394;2023-09-30T01:22:09;23.40;54.20
43561;DHT22;32305;46.410;17.394;2023-09-30T01:24:40;23.40;54.20
43561;DHT22;32305;46.410;17.394;2023-09-30T01:27:08;23.40;54.20
43561;DHT22;32305;46.410;17.394;2023-09-30T01:29:35;23.40;54.20
43561;DHT22;32305;46.410;17.394;2023-09-30T01:32:05;23.40;54.20
43561;DHT22;32305;46.410;17.394;2023-09-30T01:34:36;23.40;54.30
43561;DHT22;32305;46.410;17.394;2023-09-30T01:37:04;23.40;54.20
43561;DHT22;32305;46.410;17.394;2023-09-30T01:39:32;23.40;54.20
43561;DHT22;32305;46.410;17.394;2023-09-30T01:41:59;23.40;54.20
43561;DHT22;32305;46.410;17.394;2023-09-30T01:44:26;23.40;54.20
43561;DHT22;32305;46.410;17.394;2023-09-30T01:46:54;23.40;54.30
43561;DHT22;32305;46.410;17.394;2023-09-30T01:49:21;23.40;54.30
43561;DHT22;32305;46.410;17.394;2023-09-30T01:51:51;23.40;54.30
43561;DHT22;32305;46.410;17.394;2023-09-30T01:54:18;23.40;54.30
43561;DHT22;32305;46.410;17.394;2023-09-30T01:56:45;23.40;54.30
43561;DHT22;32305;46.410;17.394;2023-09-30T01:59:12;23.40;54.30
43561;DHT22;32305;46.410;17.394;2023-09-30T02:01:39;23.40;54.30
43561;DHT22;32305;46.410;17.394;2023-09-30T02:04:07;23.40;54.30
43561;DHT22;32305;46.410;17.394;2023-09-30T02:06:34;23.30;54.30
43561;DHT22;32305;46.410;17.394;2023-09-30T02:09:02;23.30;54.30
43561;DHT22;32305;46.410;17.394;2023-09-30T02:11:31;23.30;54.30
43561;DHT22;32305;46.410;17.394;2023-09-30T02:13:58;23.30;54.30
43561;DHT22;32305;46.410;17.394;2023-09-30T02:16:25;23.30;54.30
43561;DHT22;32305;46.410;17.394;2023-09-30T02:18:52;23.30;54.30
43561;DHT22;32305;46.410;17.394;2023-09-30T02:21:19;23.30;54.20
43561;DHT22;32305;46.410;17.394;2023-09-30T02:23:49;23.40;54.30
43561;DHT22;32305;46.410;17.394;2023-09-30T02:26:16;23.40;54.30
43561;DHT22;32305;46.410;17.394;2023-09-30T02:28:43;23.40;54.20
43561;DHT22;32305;46.410;17.394;2023-09-30T02:31:10;23.40;54.20
43561;DHT22;32305;46.410;17.394;2023-09-30T02:33:37;23.40;54.20
43561;DHT22;32305;46.410;17.394;2023-09-30T02:36:08;23.40;54.20
43561;DHT22;32305;46.410;17.394;2023-09-30T02:38:35;23.40;54.20
43561;DHT22;32305;46.410;17.394;2023-09-30T02:41:06;23.40;54.20
43561;DHT22;32305;46.410;17.394;2023-09-30T02:43:33;23.40;54.20
43561;DHT22;32305;46.410;17.394;2023-09-30T02:46:00;23.40;54.20
43561;DHT22;32305;46.410;17.394;2023-09-30T02:48:27;23.40;54.20
43561;DHT22;32305;46.410;17.394;2023-09-30T02:50:55;23.30;54.20
43561;DHT22;32305;46.410;17.394;2023-09-30T02:53:22;23.40;54.30
43561;DHT22;32305;46.410;17.394;2023-09-30T02:55:49;23.40;54.30
43561;DHT22;32305;46.410;17.394;2023-09-30T02:58:18;23.30;54.20
43561;DHT22;32305;46.410;17.394;2023-09-30T03:00:49;23.40;54.30
43561;DHT22;32305;46.410;17.394;2023-09-30T03:03:16;23.30;54.20
43561;DHT22;32305;46.410;17.394;2023-09-30T03:05:43;23.30;54.20
43561;DHT22;32305;46.410;17.394;2023-09-30T03:08:12;23.30;54.20
43561;DHT22;32305;46.410;17.394;2023-09-30T03:10:39;23.30;54.20
43561;DHT22;32305;46.410;17.394;2023-09-30T03:13:07;23.30;54.20
43561;DHT22;32305;46.410;17.394;2023-09-30T03:15:36;23.30;54.20
43561;DHT22;32305;46.410;17.394;2023-09-30T03:18:04;23.30;54.20
43561;DHT22;32305;46.410;17.394;2023-09-30T03:20:31;23.30;54.20
43561;DHT22;32305;46.410;17.394;2023-09-30T03:22:58;23.30;54.20
43561;DHT22;32305;46.410;17.394;2023-09-30T03:25:26;23.30;54.20
43561;DHT22;32305;46.410;17.394;2023-09-30T03:27:53;23.30;54.20
43561;DHT22;32305;46.410;17.394;2023-09-30T03:30:20;23.30;54.20
43561;DHT22;32305;46.410;17.394;2023-09-30T03:32:48;23.30;54.20
43561;DHT22;32305;46.410;17.394;2023-09-30T03:35:15;23.30;54.20
43561;DHT22;32305;46.410;17.394;2023-09-30T03:37:46;23.30;54.30
43561;DHT22;32305;46.410;17.394;2023-09-30T03:40:14;23.30;54.30
43561;DHT22;32305;46.410;17.394;2023-09-30T03:42:46;23.30;54.20
43561;DHT22;32305;46.410;17.394;2023-09-30T03:45:16;23.30;54.20
43561;DHT22;32305;46.410;17.394;2023-09-30T03:47:44;23.30;54.20
43561;DHT22;32305;46.410;17.394;2023-09-30T03:50:11;23.30;54.20
43561;DHT22;32305;46.410;17.394;2023-09-30T03:52:42;23.30;54.20
43561;DHT22;32305;46.410;17.394;2023-09-30T03:55:14;23.40;54.20
43561;DHT22;32305;46.410;17.394;2023-09-30T03:57:43;23.30;54.10
43561;DHT22;32305;46.410;17.394;2023-09-30T04:00:18;23.30;54.20
43561;DHT22;32305;46.410;17.394;2023-09-30T04:02:48;23.30;54.20
43561;DHT22;32305;46.410;17.394;2023-09-30T04:05:18;23.30;54.20
43561;DHT22;32305;46.410;17.394;2023-09-30T04:07:47;23.30;54.20
43561;DHT22;32305;46.410;17.394;2023-09-30T04:10:14;23.30;54.70
43561;DHT22;32305;46.410;17.394;2023-09-30T04:12:41;23.30;54.20
43561;DHT22;32305;46.410;17.394;2023-09-30T04:15:09;23.30;54.20
43561;DHT22;32305;46.410;17.394;2023-09-30T04:17:38;23.30;54.20
43561;DHT22;32305;46.410;17.394;2023-09-30T04:20:06;23.30;54.20
43561;DHT22;32305;46.410;17.394;2023-09-30T04:22:36;23.30;54.20
43561;DHT22;32305;46.410;17.394;2023-09-30T04:25:03;23.30;54.20
43561;DHT22;32305;46.410;17.394;2023-09-30T04:27:35;23.30;54.20
43561;DHT22;32305;46.410;17.394;2023-09-30T04:30:03;23.30;54.20
43561;DHT22;32305;46.410;17.394;2023-09-30T04:32:36;23.30;54.20
43561;DHT22;32305;46.410;17.394;2023-09-30T04:35:04;23.30;54.20
43561;DHT22;32305;46.410;17.394;2023-09-30T04:37:31;23.30;54.20
43561;DHT22;32305;46.410;17.394;2023-09-30T04:39:58;23.20;54.10
43561;DHT22;32305;46.410;17.394;2023-09-30T04:42:25;23.10;54.00
43561;DHT22;32305;46.410;17.394;2023-09-30T04:44:52;23.00;54.10
43561;DHT22;32305;46.410;17.394;2023-09-30T04:47:20;22.80;54.40
43561;DHT22;32305;46.410;17.394;2023-09-30T04:49:48;22.50;55.00
43561;DHT22;32305;46.410;17.394;2023-09-30T04:52:15;22.20;53.40
43561;DHT22;32305;46.410;17.394;2023-09-30T04:54:42;22.00;52.30
43561;DHT22;32305;46.410;17.394;2023-09-30T04:57:11;21.70;50.80
43561;DHT22;32305;46.410;17.394;2023-09-30T04:59:38;21.40;50.60
43561;DHT22;32305;46.410;17.394;2023-09-30T05:02:05;21.10;50.20
43561;DHT22;32305;46.410;17.394;2023-09-30T05:04:32;20.80;50.30
43561;DHT22;32305;46.410;17.394;2023-09-30T05:07:00;20.50;52.00
43561;DHT22;32305;46.410;17.394;2023-09-30T05:09:27;20.20;51.30
43561;DHT22;32305;46.410;17.394;2023-09-30T05:11:55;20.00;50.00
43561;DHT22;32305;46.410;17.394;2023-09-30T05:14:22;19.70;50.80
43561;DHT22;32305;46.410;17.394;2023-09-30T05:16:49;19.50;52.00
43561;DHT22;32305;46.410;17.394;2023-09-30T05:19:16;19.40;51.70
43561;DHT22;32305;46.410;17.394;2023-09-30T05:21:43;19.20;51.20
43561;DHT22;32305;46.410;17.394;2023-09-30T05:24:11;19.00;53.80
43561;DHT22;32305;46.410;17.394;2023-09-30T05:26:38;18.90;52.50
43561;DHT22;32305;46.410;17.394;2023-09-30T05:29:05;18.80;52.00
43561;DHT22;32305;46.410;17.394;2023-09-30T05:31:32;18.70;52.30
43561;DHT22;32305;46.410;17.394;2023-09-30T05:33:59;18.60;53.10
43561;DHT22;32305;46.410;17.394;2023-09-30T05:36:27;18.50;54.50
43561;DHT22;32305;46.410;17.394;2023-09-30T05:38:54;18.40;53.70
43561;DHT22;32305;46.410;17.394;2023-09-30T05:41:22;18.40;53.10
43561;DHT22;32305;46.410;17.394;2023-09-30T05:43:49;18.30;53.10
43561;DHT22;32305;46.410;17.394;2023-09-30T05:46:16;18.20;52.60
43561;DHT22;32305;46.410;17.394;2023-09-30T05:48:45;18.20;53.30
43561;DHT22;32305;46.410;17.394;2023-09-30T05:51:12;18.20;53.10
43561;DHT22;32305;46.410;17.394;2023-09-30T05:53:43;18.10;52.90
43561;DHT22;32305;46.410;17.394;2023-09-30T05:56:10;18.10;53.10
43561;DHT22;32305;46.410;17.394;2023-09-30T05:58:38;18.10;53.30
43561;DHT22;32305;46.410;17.394;2023-09-30T06:01:08;18.00;55.00
43561;DHT22;32305;46.410;17.394;2023-09-30T06:03:38;18.00;54.30
43561;DHT22;32305;46.410;17.394;2023-09-30T06:06:12;18.00;54.30
43561;DHT22;32305;46.410;17.394;2023-09-30T06:08:39;18.00;54.00
43561;DHT22;32305;46.410;17.394;2023-09-30T06:11:06;18.00;54.20
43561;DHT22;32305;46.410;17.394;2023-09-30T06:13:33;18.00;54.50
43561;DHT22;32305;46.410;17.394;2023-09-30T06:16:00;18.00;53.20
43561;DHT22;32305;46.410;17.394;2023-09-30T06:18:29;18.00;53.80
43561;DHT22;32305;46.410;17.394;2023-09-30T06:20:56;18.00;54.00
43561;DHT22;32305;46.410;17.394;2023-09-30T06:23:24;17.90;54.30
43561;DHT22;32305;46.410;17.394;2023-09-30T06:25:52;17.90;54.60
43561;DHT22;32305;46.410;17.394;2023-09-30T06:28:19;17.90;53.70
43561;DHT22;32305;46.410;17.394;2023-09-30T06:30:52;17.90;54.20
43561;DHT22;32305;46.410;17.394;2023-09-30T06:33:19;17.90;55.90
43561;DHT22;32305;46.410;17.394;2023-09-30T06:35:47;17.90;54.90
43561;DHT22;32305;46.410;17.394;2023-09-30T06:38:18;17.90;55.40
43561;DHT22;32305;46.410;17.394;2023-09-30T06:40:45;17.90;55.20
43561;DHT22;32305;46.410;17.394;2023-09-30T06:43:15;18.00;55.80
43561;DHT22;32305;46.410;17.394;2023-09-30T06:45:42;18.00;55.80
43561;DHT22;32305;46.410;17.394;2023-09-30T06:48:10;18.00;55.30
43561;DHT22;32305;46.410;17.394;2023-09-30T06:50:40;18.00;54.50
43561;DHT22;32305;46.410;17.394;2023-09-30T06:53:10;18.00;54.70
43561;DHT22;32305;46.410;17.394;2023-09-30T06:55:38;18.00;55.00
43561;DHT22;32305;46.410;17.394;2023-09-30T06:58:05;18.00;55.70
43561;DHT22;32305;46.410;17.394;2023-09-30T07:00:34;18.00;54.20
43561;DHT22;32305;46.410;17.394;2023-09-30T07:03:02;18.10;63.30
43561;DHT22;32305;46.410;17.394;2023-09-30T07:05:29;18.40;64.40
43561;DHT22;32305;46.410;17.394;2023-09-30T07:07:56;18.90;63.50
43561;DHT22;32305;46.410;17.394;2023-09-30T07:10:23;19.30;62.20
43561;DHT22;32305;46.410;17.394;2023-09-30T07:12:50;19.70;61.10
43561;DHT22;32305;46.410;17.394;2023-09-30T07:15:17;20.10;60.10
43561;DHT22;32305;46.410;17.394;2023-09-30T07:17:44;20.40;59.30
43561;DHT22;32305;46.410;17.394;2023-09-30T07:20:14;20.70;58.60
43561;DHT22;32305;46.410;17.394;2023-09-30T07:22:41;21.00;58.00
43561;DHT22;32305;46.410;17.394;2023-09-30T07:25:24;21.20;57.40
43561;DHT22;32305;46.410;17.394;2023-09-30T07:27:51;21.40;56.90
43561;DHT22;32305;46.410;17.394;2023-09-30T07:30:19;21.50;56.80
43561;DHT22;32305;46.410;17.394;2023-09-30T07:32:46;21.70;56.20
43561;DHT22;32305;46.410;17.394;2023-09-30T07:35:14;21.80;55.90
43561;DHT22;32305;46.410;17.394;2023-09-30T07:37:42;22.00;55.70
43561;DHT22;32305;46.410;17.394;2023-09-30T07:40:10;22.10;55.50
43561;DHT22;32305;46.410;17.394;2023-09-30T07:42:38;22.20;55.30
43561;DHT22;32305;46.410;17.394;2023-09-30T07:45:05;22.30;55.10
43561;DHT22;32305;46.410;17.394;2023-09-30T07:47:32;22.40;54.90
43561;DHT22;32305;46.410;17.394;2023-09-30T07:50:01;22.50;55.40
43561;DHT22;32305;46.410;17.394;2023-09-30T07:52:33;22.60;54.60
43561;DHT22;32305;46.410;17.394;2023-09-30T07:55:00;22.70;54.40
43561;DHT22;32305;46.410;17.394;2023-09-30T07:57:27;22.80;54.30
43561;DHT22;32305;46.410;17.394;2023-09-30T07:59:54;22.80;54.20
43561;DHT22;32305;46.410;17.394;2023-09-30T08:02:22;22.90;54.10
43561;DHT22;32305;46.410;17.394;2023-09-30T08:04:51;23.00;54.00
43561;DHT22;32305;46.410;17.394;2023-09-30T08:07:19;23.00;53.80
43561;DHT22;32305;46.410;17.394;2023-09-30T08:09:47;23.10;53.70
43561;DHT22;32305;46.410;17.394;2023-09-30T08:12:14;23.20;53.60
43561;DHT22;32305;46.410;17.394;2023-09-30T08:14:41;23.20;53.40
43561;DHT22;32305;46.410;17.394;2023-09-30T08:17:12;23.30;53.40
43561;DHT22;32305;46.410;17.394;2023-09-30T08:19:39;23.30;53.20
43561;DHT22;32305;46.410;17.394;2023-09-30T08:22:06;23.40;53.10
43561;DHT22;32305;46.410;17.394;2023-09-30T08:24:33;23.40;53.00
43561;DHT22;32305;46.410;17.394;2023-09-30T08:27:01;23.40;53.00
43561;DHT22;32305;46.410;17.394;2023-09-30T08:29:28;23.50;53.00
43561;DHT22;32305;46.410;17.394;2023-09-30T08:31:55;23.50;52.90
43561;DHT22;32305;46.410;17.394;2023-09-30T08:34:22;23.50;52.90
43561;DHT22;32305;46.410;17.394;2023-09-30T08:36:50;23.60;52.90
43561;DHT22;32305;46.410;17.394;2023-09-30T08:39:18;23.60;52.80
43561;DHT22;32305;46.410;17.394;2023-09-30T08:41:45;23.60;52.90
43561;DHT22;32305;46.410;17.394;2023-09-30T08:44:12;23.70;52.90
43561;DHT22;32305;46.410;17.394;2023-09-30T08:46:40;23.70;52.90
43561;DHT22;32305;46.410;17.394;2023-09-30T08:49:08;23.70;52.90
43561;DHT22;32305;46.410;17.394;2023-09-30T08:51:35;23.70;52.90
43561;DHT22;32305;46.410;17.394;2023-09-30T08:54:04;23.80;52.80
43561;DHT22;32305;46.410;17.394;2023-09-30T08:56:32;23.80;52.80
43561;DHT22;32305;46.410;17.394;2023-09-30T08:59:02;23.80;52.60
43561;DHT22;32305;46.410;17.394;2023-09-30T09:01:30;23.90;52.50
43561;DHT22;32305;46.410;17.394;2023-09-30T09:03:57;23.90;52.40
43561;DHT22;32305;46.410;17.394;2023-09-30T09:06:25;23.90;58.20
43561;DHT22;32305;46.410;17.394;2023-09-30T09:08:53;23.90;61.80
43561;DHT22;32305;46.410;17.394;2023-09-30T09:11:20;23.60;46.80
43561;DHT22;32305;46.410;17.394;2023-09-30T09:13:48;23.20;45.60
43561;DHT22;32305;46.410;17.394;2023-09-30T09:16:18;22.70;47.00
43561;DHT22;32305;46.410;17.394;2023-09-30T09:18:48;22.20;47.50
43561;DHT22;32305;46.410;17.394;2023-09-30T09:21:17;21.80;48.90
43561;DHT22;32305;46.410;17.394;2023-09-30T09:23:45;21.50;49.40
43561;DHT22;32305;46.410;17.394;2023-09-30T09:26:13;21.10;50.40
43561;DHT22;32305;46.410;17.394;2023-09-30T09:28:56;20.80;50.70
43561;DHT22;32305;46.410;17.394;2023-09-30T09:31:25;20.50;51.60
43561;DHT22;32305;46.410;17.394;2023-09-30T09:33:52;20.30;52.20
43561;DHT22;32305;46.410;17.394;2023-09-30T09:36:20;20.10;52.50
43561;DHT22;32305;46.410;17.394;2023-09-30T09:38:48;19.90;53.10
43561;DHT22;32305;46.410;17.394;2023-09-30T09:41:15;19.80;53.40
43561;DHT22;32305;46.410;17.394;2023-09-30T09:43:42;19.60;54.20
43561;DHT22;32305;46.410;17.394;2023-09-30T09:46:10;19.60;54.10
43561;DHT22;32305;46.410;17.394;2023-09-30T09:48:38;19.40;53.70
43561;DHT22;32305;46.410;17.394;2023-09-30T09:51:05;19.40;53.90
43561;DHT22;32305;46.410;17.394;2023-09-30T09:53:34;19.30;53.70
43561;DHT22;32305;46.410;17.394;2023-09-30T09:56:03;19.20;53.50
43561;DHT22;32305;46.410;17.394;2023-09-30T09:58:32;19.20;53.80
43561;DHT22;32305;46.410;17.394;2023-09-30T10:01:03;19.10;55.00
43561;DHT22;32305;46.410;17.394;2023-09-30T10:03:32;19.00;54.60
43561;DHT22;32305;46.410;17.394;2023-09-30T10:05:59;19.00;54.20
43561;DHT22;32305;46.410;17.394;2023-09-30T10:08:29;18.90;55.10
43561;DHT22;32305;46.410;17.394;2023-09-30T10:11:01;18.90;55.30
43561;DHT22;32305;46.410;17.394;2023-09-30T10:19:07;18.90;54.40
43561;DHT22;32305;46.410;17.394;2023-09-30T10:21:34;18.90;54.70
43561;DHT22;32305;46.410;17.394;2023-09-30T10:29:42;18.90;55.20
43561;DHT22;32305;46.410;17.394;2023-09-30T10:32:09;18.90;54.30
43561;DHT22;32305;46.410;17.394;2023-09-30T10:34:36;18.90;54.10
43561;DHT22;32305;46.410;17.394;2023-09-30T10:37:19;18.90;53.80
43561;DHT22;32305;46.410;17.394;2023-09-30T10:39:59;18.90;55.10
43561;DHT22;32305;46.410;17.394;2023-09-30T10:42:43;18.90;54.30
43561;DHT22;32305;46.410;17.394;2023-09-30T10:47:58;18.90;53.90
43561;DHT22;32305;46.410;17.394;2023-09-30T10:53:13;18.90;56.00
43561;DHT22;32305;46.410;17.394;2023-09-30T10:55:40;18.90;55.80
43561;DHT22;32305;46.410;17.394;2023-09-30T10:58:09;18.80;56.00
43561;DHT22;32305;46.410;17.394;2023-09-30T11:00:37;18.80;56.10
43561;DHT22;32305;46.410;17.394;2023-09-30T11:03:05;18.80;56.40
43561;DHT22;32305;46.410;17.394;2023-09-30T11:05:32;18.80;55.20
43561;DHT22;32305;46.410;17.394;2023-09-30T11:08:21;18.80;56.50
43561;DHT22;32305;46.410;17.394;2023-09-30T11:10:50;18.80;56.50
43561;DHT22;32305;46.410;17.394;2023-09-30T11:13:17;18.80;57.30
43561;DHT22;32305;46.410;17.394;2023-09-30T11:15:45;18.80;55.60
43561;DHT22;32305;46.410;17.394;2023-09-30T11:18:15;18.80;56.90
43561;DHT22;32305;46.410;17.394;2023-09-30T11:20:42;18.80;56.10
43561;DHT22;32305;46.410;17.394;2023-09-30T11:23:11;18.80;56.00
43561;DHT22;32305;46.410;17.394;2023-09-30T11:25:38;18.80;56.10
43561;DHT22;32305;46.410;17.394;2023-09-30T11:28:16;18.80;56.20
43561;DHT22;32305;46.410;17.394;2023-09-30T11:30:54;18.80;56.50
43561;DHT22;32305;46.410;17.394;2023-09-30T11:33:21;18.80;56.80
43561;DHT22;32305;46.410;17.394;2023-09-30T11:35:56;18.80;57.10
43561;DHT22;32305;46.410;17.394;2023-09-30T11:38:24;18.80;57.20
43561;DHT22;32305;46.410;17.394;2023-09-30T11:41:02;18.80;57.70
43561;DHT22;32305;46.410;17.394;2023-09-30T11:43:32;18.80;57.70
43561;DHT22;32305;46.410;17.394;2023-09-30T11:46:10;18.80;55.90
43561;DHT22;32305;46.410;17.394;2023-09-30T11:48:38;18.80;56.30
43561;DHT22;32305;46.410;17.394;2023-09-30T11:51:05;18.90;56.10
43561;DHT22;32305;46.410;17.394;2023-09-30T11:53:34;18.90;57.60
43561;DHT22;32305;46.410;17.394;2023-09-30T11:56:02;18.90;56.80
43561;DHT22;32305;46.410;17.394;2023-09-30T11:58:29;18.90;57.00
43561;DHT22;32305;46.410;17.394;2023-09-30T12:00:59;18.90;56.00
43561;DHT22;32305;46.410;17.394;2023-09-30T12:03:29;18.90;57.00
43561;DHT22;32305;46.410;17.394;2023-09-30T12:05:57;18.90;56.90
43561;DHT22;32305;46.410;17.394;2023-09-30T12:08:24;18.90;56.10
43561;DHT22;32305;46.410;17.394;2023-09-30T12:10:51;18.90;57.70
43561;DHT22;32305;46.410;17.394;2023-09-30T12:13:18;18.90;57.00
43561;DHT22;32305;46.410;17.394;2023-09-30T12:15:45;18.90;57.80
43561;DHT22;32305;46.410;17.394;2023-09-30T12:18:12;18.90;56.80
43561;DHT22;32305;46.410;17.394;2023-09-30T12:20:43;18.90;58.00
43561;DHT22;32305;46.410;17.394;2023-09-30T12:23:11;18.90;57.60
43561;DHT22;32305;46.410;17.394;2023-09-30T12:25:39;18.90;57.10
43561;DHT22;32305;46.410;17.394;2023-09-30T12:28:06;18.90;58.40
43561;DHT22;32305;46.410;17.394;2023-09-30T12:30:33;18.90;57.10
43561;DHT22;32305;46.410;17.394;2023-09-30T12:33:00;18.90;56.30
43561;DHT22;32305;46.410;17.394;2023-09-30T12:35:27;18.90;58.00
43561;DHT22;32305;46.410;17.394;2023-09-30T12:37:55;18.90;58.40
43561;DHT22;32305;46.410;17.394;2023-09-30T12:40:22;18.90;58.00
43561;DHT22;32305;46.410;17.394;2023-09-30T12:42:49;18.80;58.40
43561;DHT22;32305;46.410;17.394;2023-09-30T12:45:17;18.80;57.40
43561;DHT22;32305;46.410;17.394;2023-09-30T12:47:44;18.90;57.00
43561;DHT22;32305;46.410;17.394;2023-09-30T12:50:14;18.90;58.40
43561;DHT22;32305;46.410;17.394;2023-09-30T12:52:41;18.90;57.80
43561;DHT22;32305;46.410;17.394;2023-09-30T12:55:08;18.80;58.40
43561;DHT22;32305;46.410;17.394;2023-09-30T12:57:36;18.90;57.80
43561;DHT22;32305;46.410;17.394;2023-09-30T13:00:03;18.80;58.70
43561;DHT22;32305;46.410;17.394;2023-09-30T13:02:31;18.90;57.80
43561;DHT22;32305;46.410;17.394;2023-09-30T13:04:58;18.90;58.40
43561;DHT22;32305;46.410;17.394;2023-09-30T13:07:25;18.90;57.50
43561;DHT22;32305;46.410;17.394;2023-09-30T13:09:52;18.90;57.50
43561;DHT22;32305;46.410;17.394;2023-09-30T13:12:19;18.90;56.70
43561;DHT22;32305;46.410;17.394;2023-09-30T13:14:47;18.90;57.20
43561;DHT22;32305;46.410;17.394;2023-09-30T13:17:14;18.90;57.90
43561;DHT22;32305;46.410;17.394;2023-09-30T13:19:41;18.90;57.70
43561;DHT22;32305;46.410;17.394;2023-09-30T13:22:08;18.90;57.50
43561;DHT22;32305;46.410;17.394;2023-09-30T13:24:44;18.90;57.80
43561;DHT22;32305;46.410;17.394;2023-09-30T13:27:12;18.90;58.50
43561;DHT22;32305;46.410;17.394;2023-09-30T13:29:42;18.90;58.00
43561;DHT22;32305;46.410;17.394;2023-09-30T13:32:10;18.90;57.80
43561;DHT22;32305;46.410;17.394;2023-09-30T13:34:37;18.90;58.20
43561;DHT22;32305;46.410;17.394;2023-09-30T13:37:05;18.90;57.60
43561;DHT22;32305;46.410;17.394;2023-09-30T13:39:35;18.90;58.10
43561;DHT22;32305;46.410;17.394;2023-09-30T13:42:02;18.90;57.80
43561;DHT22;32305;46.410;17.394;2023-09-30T13:44:29;18.90;58.10
43561;DHT22;32305;46.410;17.394;2023-09-30T13:46:56;18.90;57.90
43561;DHT22;32305;46.410;17.394;2023-09-30T13:49:23;18.90;58.00
43561;DHT22;32305;46.410;17.394;2023-09-30T13:51:50;18.90;58.20
43561;DHT22;32305;46.410;17.394;2023-09-30T13:54:17;18.90;58.20
43561;DHT22;32305;46.410;17.394;2023-09-30T13:56:44;18.80;58.60
43561;DHT22;32305;46.410;17.394;2023-09-30T13:59:11;18.80;58.40
43561;DHT22;32305;46.410;17.394;2023-09-30T14:01:38;18.80;58.50
43561;DHT22;32305;46.410;17.394;2023-09-30T14:04:08;18.80;58.50
43561;DHT22;32305;46.410;17.394;2023-09-30T14:06:35;18.80;63.20
43561;DHT22;32305;46.410;17.394;2023-09-30T14:09:03;19.10;70.70
43561;DHT22;32305;46.410;17.394;2023-09-30T14:11:31;19.40;74.90
43561;DHT22;32305;46.410;17.394;2023-09-30T14:13:58;19.70;76.40
43561;DHT22;32305;46.410;17.394;2023-09-30T14:16:25;19.90;76.50
43561;DHT22;32305;46.410;17.394;2023-09-30T14:18:52;20.20;76.30
43561;DHT22;32305;46.410;17.394;2023-09-30T14:21:20;20.50;76.10
43561;DHT22;32305;46.410;17.394;2023-09-30T14:23:47;20.70;75.70
43561;DHT22;32305;46.410;17.394;2023-09-30T14:26:14;21.00;75.30
43561;DHT22;32305;46.410;17.394;2023-09-30T14:28:41;21.20;75.10
43561;DHT22;32305;46.410;17.394;2023-09-30T14:31:08;21.30;74.70
43561;DHT22;32305;46.410;17.394;2023-09-30T14:33:35;21.50;74.50
43561;DHT22;32305;46.410;17.394;2023-09-30T14:36:03;21.60;74.20
43561;DHT22;32305;46.410;17.394;2023-09-30T14:38:33;21.70;74.00
43561;DHT22;32305;46.410;17.394;2023-09-30T14:41:00;21.80;73.80
43561;DHT22;32305;46.410;17.394;2023-09-30T14:43:27;21.90;73.60
43561;DHT22;32305;46.410;17.394;2023-09-30T14:45:54;22.00;73.50
43561;DHT22;32305;46.410;17.394;2023-09-30T14:48:21;22.10;73.40
43561;DHT22;32305;46.410;17.394;2023-09-30T14:50:49;22.20;73.50
43561;DHT22;32305;46.410;17.394;2023-09-30T14:53:16;22.20;73.20
43561;DHT22;32305;46.410;17.394;2023-09-30T14:55:43;22.30;73.30
43561;DHT22;32305;46.410;17.394;2023-09-30T14:58:10;22.40;73.20
43561;DHT22;32305;46.410;17.394;2023-09-30T15:00:38;22.40;73.30
43561;DHT22;32305;46.410;17.394;2023-09-30T15:03:08;22.50;73.20
43561;DHT22;32305;46.410;17.394;2023-09-30T15:05:35;22.50;73.40
43561;DHT22;32305;46.410;17.394;2023-09-30T15:08:02;22.60;73.00
43561;DHT22;32305;46.410;17.394;2023-09-30T15:10:29;22.60;73.00
43561;DHT22;32305;46.410;17.394;2023-09-30T15:12:57;22.70;72.90
43561;DHT22;32305;46.410;17.394;2023-09-30T15:15:24;22.70;73.00
43561;DHT22;32305;46.410;17.394;2023-09-30T15:17:51;22.70;73.00
43561;DHT22;32305;46.410;17.394;2023-09-30T15:20:20;22.70;72.60
43561;DHT22;32305;46.410;17.394;2023-09-30T15:22:47;22.80;72.40
43561;DHT22;32305;46.410;17.394;2023-09-30T15:25:14;22.80;71.80
43561;DHT22;32305;46.410;17.394;2023-09-30T15:27:41;22.80;71.80
43561;DHT22;32305;46.410;17.394;2023-09-30T15:30:09;22.80;71.50
43561;DHT22;32305;46.410;17.394;2023-09-30T15:32:38;22.90;71.70
43561;DHT22;32305;46.410;17.394;2023-09-30T15:35:05;22.90;71.60
43561;DHT22;32305;46.410;17.394;2023-09-30T15:37:32;23.00;71.20